createdAt,value
2022-09-01T00:00:13.412Z,99630.20
2022-09-01T00:03:01.458Z,99627.54
2022-09-01T00:05:30.196Z,99628.19
2022-09-01T00:07:58.859Z,99632.58
2022-09-01T00:10:28.081Z,99627.94
2022-09-01T00:12:56.137Z,99627.90
2022-09-01T00:15:25.779Z,99625.75
2022-09-01T00:17:55.094Z,99623.58
2022-09-01T00:20:24.210Z,99626.52
2022-09-01T00:22:52.724Z,99628.09
2022-09-01T00:25:21.268Z,99632.27
2022-09-01T00:27:49.860Z,99634.65
2022-09-01T00:30:21.625Z,99634.21
2022-09-01T00:32:49.538Z,99636.15
2022-09-01T00:35:19.897Z,99636.69
2022-09-01T00:37:50.013Z,99637.36
2022-09-01T00:40:18.441Z,99637.19
2022-09-01T00:42:49.094Z,99640.02
2022-09-01T00:45:20.411Z,99634.09
2022-09-01T00:47:50.487Z,99631.48
2022-09-01T00:50:20.293Z,99631.15
2022-09-01T00:52:51.701Z,99630.58
2022-09-01T00:55:27.074Z,99626.54
2022-09-01T00:57:56.304Z,99627.42
2022-09-01T01:00:30.621Z,99626.77
2022-09-01T01:03:02.290Z,99622.89
2022-09-01T01:05:35.404Z,99620.80
2022-09-01T01:08:04.769Z,99622.80
2022-09-01T01:10:37.751Z,99618.64
2022-09-01T01:13:14.045Z,99621.36
2022-09-01T01:15:45.323Z,99624.84
2022-09-01T01:18:16.972Z,99627.41
2022-09-01T01:21:48.457Z,99624.87
2022-09-01T01:24:33.122Z,99626.83
2022-09-01T01:27:02.094Z,99623.06
2022-09-01T01:29:36.750Z,99625.46
2022-09-01T01:32:13.466Z,99628.58
2022-09-01T01:34:43.647Z,99628.69
2022-09-01T01:37:14.518Z,99628.98
2022-09-01T01:39:45.017Z,99627.00
2022-09-01T01:42:16.917Z,99631.86
2022-09-01T01:44:44.937Z,99625.40
2022-09-01T01:47:13.912Z,99625.17
2022-09-01T01:49:45.179Z,99621.65
2022-09-01T01:52:17.460Z,99618.13
2022-09-01T01:54:47.748Z,99616.97
2022-09-01T01:57:17.434Z,99617.30
2022-09-01T01:59:45.710Z,99616.91
2022-09-01T02:02:13.958Z,99618.07
2022-09-01T02:04:44.730Z,99614.10
2022-09-01T02:07:14.250Z,99610.32
2022-09-01T02:09:46.565Z,99610.45
2022-09-01T02:12:19.780Z,99609.34
2022-09-01T02:14:48.713Z,99612.33
2022-09-01T02:17:17.628Z,99612.10
2022-09-01T02:19:47.561Z,99614.58
2022-09-01T02:22:15.561Z,99617.39
2022-09-01T02:24:49.299Z,99620.88
2022-09-01T02:27:22.117Z,99617.21
2022-09-01T02:29:52.235Z,99617.51
2022-09-01T02:32:22.280Z,99617.27
2022-09-01T02:34:54.814Z,99616.66
2022-09-01T02:37:25.607Z,99617.11
2022-09-01T02:39:57.005Z,99614.60
2022-09-01T02:42:30.369Z,99617.00
2022-09-01T02:45:00.147Z,99615.27
2022-09-01T02:47:32.709Z,99616.84
2022-09-01T02:50:04.133Z,99618.42
2022-09-01T02:52:37.757Z,99617.70
2022-09-01T02:55:06.957Z,99616.78
2022-09-01T02:57:38.231Z,99615.08
2022-09-01T03:00:20.952Z,99618.12
2022-09-01T03:02:52.923Z,99620.45
2022-09-01T03:05:27.312Z,99616.67
2022-09-01T03:08:00.550Z,99617.48
2022-09-01T03:10:32.901Z,99619.70
2022-09-01T03:13:06.788Z,99619.52
2022-09-01T03:15:36.718Z,99617.05
2022-09-01T03:18:07.357Z,99618.31
2022-09-01T03:20:39.695Z,99617.33
2022-09-01T03:23:08.790Z,99618.29
2022-09-01T03:25:39.768Z,99620.66
2022-09-01T03:28:13.259Z,99623.67
2022-09-01T03:30:51.020Z,99626.17
2022-09-01T03:33:23.465Z,99622.27
2022-09-01T03:35:52.887Z,99621.71
2022-09-01T03:38:24.446Z,99624.44
2022-09-01T03:41:02.280Z,99622.06
2022-09-01T03:43:35.822Z,99621.45
2022-09-01T03:46:05.500Z,99621.91
2022-09-01T03:48:33.714Z,99621.79
2022-09-01T03:51:04.103Z,99620.87
2022-09-01T03:53:40.096Z,99619.88
2022-09-01T03:56:09.260Z,99619.68
2022-09-01T03:58:42.426Z,99614.73
2022-09-01T04:01:13.783Z,99618.38
2022-09-01T04:03:45.660Z,99617.28
2022-09-01T04:06:15.345Z,99617.52
2022-09-01T04:08:44.902Z,99617.02
2022-09-01T04:11:23.717Z,99616.08
2022-09-01T04:13:53.519Z,99614.33
2022-09-01T04:16:44.348Z,99610.84
2022-09-01T04:19:25.774Z,99611.81
2022-09-01T04:21:57.766Z,99611.81
2022-09-01T04:24:31.142Z,99616.69
2022-09-01T04:27:04.018Z,99608.95
2022-09-01T04:29:33.109Z,99615.80
2022-09-01T04:32:07.189Z,99611.14
2022-09-01T04:34:39.999Z,99616.78
2022-09-01T04:37:15.157Z,99613.37
2022-09-01T04:39:55.739Z,99611.52
2022-09-01T04:42:27.513Z,99617.42
2022-09-01T04:45:00.111Z,99616.92
2022-09-01T04:47:35.918Z,99613.95
2022-09-01T04:50:14.908Z,99612.83
2022-09-01T04:53:07.015Z,99615.77
2022-09-01T04:55:49.988Z,99616.09
2022-09-01T04:58:20.981Z,99616.36
2022-09-01T05:00:52.582Z,99617.41
2022-09-01T05:03:24.238Z,99620.52
2022-09-01T05:06:19.139Z,99620.02
2022-09-01T05:08:59.642Z,99624.25
2022-09-01T05:11:45.671Z,99621.28
2022-09-01T05:14:26.220Z,99626.09
2022-09-01T05:17:01.003Z,99626.85
2022-09-01T05:19:30.245Z,99621.30
2022-09-01T05:22:00.650Z,99620.80
2022-09-01T05:24:30.563Z,99621.48
2022-09-01T05:27:01.932Z,99619.70
2022-09-01T05:29:38.113Z,99624.14
2022-09-01T05:32:12.804Z,99622.30
2022-09-01T05:34:44.079Z,99625.88
2022-09-01T05:37:14.683Z,99631.73
2022-09-01T05:39:46.215Z,99632.59
2022-09-01T05:42:14.733Z,99629.89
2022-09-01T05:44:44.399Z,99628.98
2022-09-01T05:47:20.274Z,99630.26
2022-09-01T05:49:53.911Z,99630.67
2022-09-01T05:52:26.338Z,99631.45
2022-09-01T05:54:56.983Z,99633.27
2022-09-01T05:57:35.339Z,99628.93
2022-09-01T06:00:13.548Z,99629.46
2022-09-01T06:02:43.274Z,99625.73
2022-09-01T06:05:16.200Z,99624.05
2022-09-01T06:07:46.003Z,99628.02
2022-09-01T06:10:16.310Z,99632.15
2022-09-01T06:12:47.807Z,99634.77
2022-09-01T06:15:18.756Z,99633.73
2022-09-01T06:17:49.975Z,99636.41
2022-09-01T06:20:19.093Z,99633.89
2022-09-01T06:22:49.036Z,99636.77
2022-09-01T06:25:18.785Z,99636.00
2022-09-01T06:27:48.622Z,99633.19
2022-09-01T06:30:24.141Z,99634.44
2022-09-01T06:32:57.288Z,99638.77
2022-09-01T06:35:29.721Z,99639.55
2022-09-01T06:38:00.167Z,99641.33
2022-09-01T06:40:42.449Z,99645.39
2022-09-01T06:43:16.717Z,99641.14
2022-09-01T06:45:55.259Z,99642.85
2022-09-01T06:48:28.140Z,99652.60
2022-09-01T06:51:21.947Z,99655.88
2022-09-01T06:53:57.181Z,99655.78
2022-09-01T06:56:32.089Z,99663.59
2022-09-01T06:59:18.336Z,99661.60
2022-09-01T07:04:57.728Z,99658.63
2022-09-01T07:16:51.078Z,99651.50
2022-09-01T07:19:20.923Z,99657.45
2022-09-01T07:22:35.862Z,99657.64
2022-09-01T07:28:15.849Z,99657.95
2022-09-01T07:30:49.190Z,99658.70
2022-09-01T07:33:44.273Z,99661.37
2022-09-01T07:36:31.954Z,99664.79
2022-09-01T07:39:57.367Z,99661.31
2022-09-01T07:42:56.656Z,99656.70
2022-09-01T07:45:59.577Z,99668.23
2022-09-01T07:48:36.707Z,99669.65
2022-09-01T07:51:42.352Z,99667.17
2022-09-01T07:54:14.053Z,99671.20
2022-09-01T07:56:42.846Z,99672.90
2022-09-01T07:59:16.940Z,99668.59
2022-09-01T08:02:12.110Z,99668.27
2022-09-01T08:04:50.273Z,99669.52
2022-09-01T08:07:20.929Z,99665.89
2022-09-01T08:09:56.108Z,99672.83
2022-09-01T08:12:29.659Z,99675.66
2022-09-01T08:15:13.918Z,99676.42
2022-09-01T08:17:51.589Z,99682.31
2022-09-01T08:20:19.907Z,99686.00
2022-09-01T08:22:54.311Z,99686.83
2022-09-01T08:25:35.615Z,99684.26
2022-09-01T08:28:10.107Z,99677.48
2022-09-01T08:30:52.073Z,99679.11
2022-09-01T08:33:27.165Z,99686.70
2022-09-01T08:35:57.200Z,99682.20
2022-09-01T08:38:27.082Z,99685.13
2022-09-01T08:40:57.834Z,99685.35
2022-09-01T08:44:08.380Z,99683.71
2022-09-01T08:46:41.467Z,99688.31
2022-09-01T08:49:27.720Z,99691.86
2022-09-01T08:52:41.369Z,99697.23
2022-09-01T08:55:29.019Z,99697.95
2022-09-01T08:58:00.835Z,99696.73
2022-09-01T09:00:48.283Z,99694.93
2022-09-01T09:03:48.002Z,99692.89
2022-09-01T09:06:38.764Z,99695.20
2022-09-01T09:09:09.291Z,99692.85
2022-09-01T09:12:05.477Z,99694.09
2022-09-01T09:15:15.250Z,99689.68
2022-09-01T09:17:54.791Z,99693.60
2022-09-01T09:20:29.185Z,99692.70
2022-09-01T09:22:59.777Z,99696.30
2022-09-01T09:25:29.846Z,99697.40
2022-09-01T09:28:03.071Z,99692.14
2022-09-01T09:30:38.435Z,99692.10
2022-09-01T09:33:51.374Z,99689.26
2022-09-01T09:36:53.834Z,99686.59
2022-09-01T09:39:29.515Z,99685.47
2022-09-01T09:42:21.179Z,99689.31
2022-09-01T09:44:57.654Z,99685.13
2022-09-01T09:47:45.156Z,99682.08
2022-09-01T09:50:35.638Z,99678.34
2022-09-01T09:53:40.280Z,99672.90
2022-09-01T09:56:26.211Z,99678.18
2022-09-01T09:59:00.335Z,99680.25
2022-09-01T10:01:57.194Z,99674.69
2022-09-01T10:04:39.056Z,99679.63
2022-09-01T10:07:28.833Z,99668.37
2022-09-01T10:10:01.150Z,99662.65
2022-09-01T10:12:31.257Z,99661.15
2022-09-01T10:15:07.075Z,99663.96
2022-09-01T10:18:19.634Z,99662.48
2022-09-01T10:21:10.560Z,99664.92
2022-09-01T10:23:45.017Z,99666.96
2022-09-01T10:26:23.835Z,99669.91
2022-09-01T10:28:57.743Z,99670.44
2022-09-01T10:31:32.869Z,99671.58
2022-09-01T10:34:05.491Z,99672.98
2022-09-01T10:36:37.765Z,99669.83
2022-09-01T10:39:11.627Z,99669.95
2022-09-01T10:42:07.588Z,99671.08
2022-09-01T10:44:57.731Z,99676.40
2022-09-01T10:47:34.188Z,99679.14
2022-09-01T10:50:35.505Z,99679.10
2022-09-01T10:53:06.552Z,99676.40
2022-09-01T10:55:44.205Z,99675.58
2022-09-01T11:01:49.296Z,99678.21
2022-09-01T11:04:42.532Z,99683.39
2022-09-01T11:07:29.829Z,99682.54
2022-09-01T11:10:39.803Z,99676.61
2022-09-01T11:13:50.027Z,99677.95
2022-09-01T11:16:48.012Z,99673.92
2022-09-01T11:19:37.942Z,99675.73
2022-09-01T11:22:26.472Z,99673.27
2022-09-01T11:25:41.503Z,99673.73
2022-09-01T11:28:37.562Z,99674.70
2022-09-01T11:31:21.753Z,99671.68
2022-09-01T11:34:00.885Z,99671.08
2022-09-01T11:36:48.208Z,99668.34
2022-09-01T11:39:31.527Z,99670.41
2022-09-01T11:42:34.919Z,99671.27
2022-09-01T11:45:24.934Z,99676.49
2022-09-01T11:47:56.525Z,99679.48
2022-09-01T11:50:38.957Z,99678.48
2022-09-01T11:53:23.106Z,99676.95
2022-09-01T11:55:53.227Z,99672.18
2022-09-01T11:58:39.551Z,99671.83
2022-09-01T12:01:33.283Z,99672.95
2022-09-01T12:04:24.005Z,99669.33
2022-09-01T12:07:02.435Z,99671.67
2022-09-01T12:09:42.034Z,99673.66
2022-09-01T12:13:00.188Z,99676.10
2022-09-01T12:15:29.115Z,99675.21
2022-09-01T12:18:23.184Z,99674.34
2022-09-01T12:21:16.390Z,99675.08
2022-09-01T12:23:45.455Z,99671.52
2022-09-01T12:26:18.341Z,99669.50
2022-09-01T12:28:50.441Z,99667.33
2022-09-01T12:31:24.452Z,99664.56
2022-09-01T12:33:54.244Z,99663.25
2022-09-01T12:36:27.285Z,99665.10
2022-09-01T12:39:17.976Z,99667.98
2022-09-01T12:42:01.136Z,99668.95
2022-09-01T12:44:57.490Z,99665.14
2022-09-01T12:47:34.504Z,99662.85
2022-09-01T12:50:16.392Z,99654.83
2022-09-01T12:52:52.927Z,99653.49
2022-09-01T12:58:25.858Z,99650.77
2022-09-01T13:00:55.888Z,99645.29
2022-09-01T13:03:24.147Z,99640.36
2022-09-01T13:06:00.210Z,99643.25
2022-09-01T13:08:33.323Z,99640.82
2022-09-01T13:11:09.115Z,99642.27
2022-09-01T13:13:39.323Z,99638.11
2022-09-01T13:16:14.697Z,99642.22
2022-09-01T13:21:35.855Z,99637.80
2022-09-01T13:24:07.208Z,99633.75
2022-09-01T13:26:35.300Z,99632.95
2022-09-01T13:29:03.727Z,99627.80
2022-09-01T13:31:32.260Z,99627.52
2022-09-01T13:34:20.659Z,99630.05
2022-09-01T13:36:52.025Z,99624.71
2022-09-01T13:39:21.321Z,99620.92
2022-09-01T13:41:49.601Z,99621.06
2022-09-01T13:44:18.721Z,99622.39
2022-09-01T13:49:43.686Z,99619.16
2022-09-01T13:52:13.322Z,99618.36
2022-09-01T13:54:42.229Z,99615.65
2022-09-01T13:57:12.386Z,99619.98
2022-09-01T13:59:42.071Z,99618.70
2022-09-01T14:02:11.145Z,99614.19
2022-09-01T14:04:42.474Z,99609.34
2022-09-01T14:07:10.317Z,99606.09
2022-09-01T14:09:39.334Z,99603.40
2022-09-01T14:12:07.830Z,99599.97
2022-09-01T14:17:26.830Z,99595.31
2022-09-01T14:19:55.480Z,99588.09
2022-09-01T14:22:23.404Z,99588.15
2022-09-01T14:24:51.280Z,99584.52
2022-09-01T14:27:20.380Z,99581.70
2022-09-01T14:29:55.120Z,99594.10
2022-09-01T14:32:27.287Z,99593.42
2022-09-01T14:35:00.872Z,99602.34
2022-09-01T14:37:29.311Z,99601.77
2022-09-01T14:40:00.502Z,99600.65
2022-09-01T14:42:31.923Z,99598.71
2022-09-01T14:45:02.157Z,99598.16
2022-09-01T14:47:30.941Z,99595.47
2022-09-01T14:49:58.942Z,99595.99
2022-09-01T14:52:27.497Z,99589.76
2022-09-01T14:54:56.014Z,99593.48
2022-09-01T14:57:37.459Z,99592.41
2022-09-01T15:00:12.291Z,99588.92
2022-09-01T15:02:41.525Z,99587.80
2022-09-01T15:05:11.083Z,99593.50
2022-09-01T15:07:41.997Z,99591.91
2022-09-01T15:10:15.877Z,99594.06
2022-09-01T15:12:46.105Z,99587.13
2022-09-01T15:15:14.170Z,99586.16
2022-09-01T15:17:44.632Z,99585.06
2022-09-01T15:20:34.551Z,99589.54
2022-09-01T15:23:06.740Z,99581.06
2022-09-01T15:25:39.670Z,99584.86
2022-09-01T15:28:07.851Z,99585.33
2022-09-01T15:30:37.237Z,99583.98
2022-09-01T15:33:06.542Z,99586.88
2022-09-01T15:35:34.472Z,99585.55
2022-09-01T15:38:04.721Z,99582.66
2022-09-01T15:40:33.567Z,99587.52
2022-09-01T15:43:08.120Z,99582.21
2022-09-01T15:45:36.558Z,99580.85
2022-09-01T15:48:07.609Z,99579.13
2022-09-01T15:50:36.606Z,99575.90
2022-09-01T15:53:13.315Z,99571.04
2022-09-01T15:55:46.829Z,99571.20
2022-09-01T15:58:19.052Z,99566.92
2022-09-01T16:00:47.517Z,99570.54
2022-09-01T16:03:16.351Z,99569.31
2022-09-01T16:05:47.386Z,99573.52
2022-09-01T16:08:15.289Z,99575.02
2022-09-01T16:10:43.190Z,99579.02
2022-09-01T16:13:14.164Z,99578.13
2022-09-01T16:15:48.515Z,99575.73
2022-09-01T16:18:59.613Z,99574.17
2022-09-01T16:21:48.179Z,99572.87
2022-09-01T16:24:16.575Z,99570.93
2022-09-01T16:26:48.445Z,99570.58
2022-09-01T16:29:48.692Z,99570.86
2022-09-01T16:32:17.128Z,99572.21
2022-09-01T16:34:48.432Z,99574.08
2022-09-01T16:37:53.745Z,99573.98
2022-09-01T16:40:31.208Z,99574.31
2022-09-01T16:43:24.815Z,99575.49
2022-09-01T16:46:23.527Z,99575.40
2022-09-01T16:49:18.258Z,99577.65
2022-09-01T16:52:05.669Z,99575.48
2022-09-01T16:55:15.701Z,99577.96
2022-09-01T16:57:54.157Z,99578.51
2022-09-01T17:00:37.206Z,99578.69
2022-09-01T17:03:42.484Z,99576.66
2022-09-01T17:06:32.095Z,99579.66
2022-09-01T17:09:25.118Z,99575.98
2022-09-01T17:12:02.670Z,99575.26
2022-09-01T17:14:40.559Z,99575.59
2022-09-01T17:17:18.163Z,99576.66
2022-09-01T17:19:54.563Z,99580.36
2022-09-01T17:22:25.834Z,99583.62
2022-09-01T17:25:18.819Z,99584.64
2022-09-01T17:28:29.905Z,99587.89
2022-09-01T17:31:30.450Z,99593.05
2022-09-01T17:34:28.735Z,99593.29
2022-09-01T17:37:18.014Z,99597.91
2022-09-01T17:40:18.922Z,99604.95
2022-09-01T17:43:26.125Z,99606.60
2022-09-01T17:47:01.949Z,99611.27
2022-09-01T17:49:50.621Z,99617.02
2022-09-01T17:52:57.961Z,99621.55
2022-09-01T17:56:06.509Z,99623.23
2022-09-01T17:59:01.926Z,99621.50
2022-09-01T18:01:48.956Z,99624.29
2022-09-01T18:05:03.093Z,99626.17
2022-09-01T18:08:01.254Z,99627.92
2022-09-01T18:11:00.476Z,99627.46
2022-09-01T18:14:03.729Z,99630.40
2022-09-01T18:16:39.238Z,99628.20
2022-09-01T18:19:16.929Z,99629.02
2022-09-01T18:22:03.689Z,99632.98
2022-09-01T18:24:51.408Z,99638.21
2022-09-01T18:27:20.995Z,99638.48
2022-09-01T18:29:57.128Z,99643.01
2022-09-01T18:32:49.684Z,99648.59
2022-09-01T18:35:36.319Z,99651.00
2022-09-01T18:38:13.195Z,99651.56
2022-09-01T18:40:56.987Z,99650.83
2022-09-01T18:44:13.356Z,99652.00
2022-09-01T18:47:01.319Z,99654.25
2022-09-01T18:49:54.207Z,99651.35
2022-09-01T18:52:52.773Z,99654.95
2022-09-01T18:55:43.279Z,99660.27
2022-09-01T18:58:51.053Z,99663.17
2022-09-01T19:01:51.617Z,99660.49
2022-09-01T19:04:33.889Z,99661.95
2022-09-01T19:07:42.952Z,99661.23
2022-09-01T19:10:22.378Z,99659.11
2022-09-01T19:13:08.942Z,99664.91
2022-09-01T19:15:46.188Z,99668.13
2022-09-01T19:18:23.877Z,99668.41
2022-09-01T19:20:57.788Z,99665.79
2022-09-01T19:23:50.719Z,99666.34
2022-09-01T19:26:22.814Z,99668.90
2022-09-01T19:28:57.309Z,99667.13
2022-09-01T19:31:35.736Z,99666.31
2022-09-01T19:34:10.964Z,99670.39
2022-09-01T19:36:46.735Z,99667.55
2022-09-01T19:39:25.384Z,99669.25
2022-09-01T19:42:08.623Z,99670.74
2022-09-01T19:44:55.478Z,99670.55
2022-09-01T19:47:51.474Z,99677.93
2022-09-01T19:50:32.903Z,99679.50
2022-09-01T19:53:07.591Z,99682.44
2022-09-01T19:56:14.178Z,99684.63
2022-09-01T19:58:48.407Z,99684.04
2022-09-01T20:01:21.227Z,99684.84
2022-09-01T20:03:55.430Z,99687.29
2022-09-01T20:06:35.484Z,99686.29
2022-09-01T20:09:17.766Z,99687.48
2022-09-01T20:12:04.627Z,99684.59
2022-09-01T20:14:49.597Z,99687.14
2022-09-01T20:17:31.546Z,99684.63
2022-09-01T20:20:31.079Z,99687.88
2022-09-01T20:23:11.007Z,99688.02
2022-09-01T20:25:49.186Z,99691.05
2022-09-01T20:28:34.911Z,99690.23
2022-09-01T20:31:12.525Z,99689.79
2022-09-01T20:34:11.074Z,99690.35
2022-09-01T20:36:50.754Z,99695.04
2022-09-01T20:39:58.707Z,99692.09
2022-09-01T20:43:20.885Z,99693.61
2022-09-01T20:45:50.022Z,99691.25
2022-09-01T20:48:27.690Z,99692.13
2022-09-01T20:51:27.531Z,99690.64
2022-09-01T20:54:12.088Z,99692.56
2022-09-01T20:57:06.725Z,99696.52
2022-09-01T20:59:39.657Z,99697.98
2022-09-01T21:02:23.934Z,99699.65
2022-09-01T21:05:04.992Z,99697.35
2022-09-01T21:08:08.421Z,99699.40
2022-09-01T21:10:43.422Z,99702.86
2022-09-01T21:13:27.811Z,99703.97
2022-09-01T21:16:08.939Z,99705.42
2022-09-01T21:19:04.058Z,99704.04
2022-09-01T21:21:56.867Z,99702.14
2022-09-01T21:24:24.702Z,99702.20
2022-09-01T21:26:57.833Z,99703.02
2022-09-01T21:29:32.093Z,99700.42
2022-09-01T21:32:07.838Z,99699.41
2022-09-01T21:34:36.718Z,99702.33
2022-09-01T21:37:05.447Z,99700.66
2022-09-01T21:39:33.294Z,99702.37
2022-09-01T21:42:02.630Z,99699.32
2022-09-01T21:44:30.483Z,99703.36
2022-09-01T21:46:58.474Z,99698.41
2022-09-01T21:49:26.300Z,99699.98
2022-09-01T21:52:00.260Z,99695.55
2022-09-01T21:54:28.769Z,99694.59
2022-09-01T21:56:56.679Z,99690.07
2022-09-01T21:59:24.525Z,99691.64
2022-09-01T22:01:52.689Z,99690.07
2022-09-01T22:04:21.221Z,99687.48
2022-09-01T22:06:49.373Z,99686.06
2022-09-01T22:09:20.587Z,99685.38
2022-09-01T22:11:51.881Z,99690.71
2022-09-01T22:14:21.865Z,99687.56
2022-09-01T22:16:50.343Z,99691.29
2022-09-01T22:19:20.198Z,99687.61
2022-09-01T22:21:48.259Z,99683.93
2022-09-01T22:24:20.045Z,99683.62
2022-09-01T22:26:50.368Z,99686.36
2022-09-01T22:29:20.959Z,99684.08
2022-09-01T22:31:48.994Z,99683.49
2022-09-01T22:34:16.871Z,99683.14
2022-09-01T22:36:47.503Z,99681.18
2022-09-01T22:39:25.150Z,99679.27
2022-09-01T22:41:53.837Z,99682.10
2022-09-01T22:44:23.450Z,99686.65
2022-09-01T22:46:52.081Z,99684.23
2022-09-01T22:49:23.163Z,99686.30
2022-09-01T22:51:53.797Z,99681.23
2022-09-01T22:54:21.711Z,99679.98
2022-09-01T22:56:50.003Z,99680.33
2022-09-01T22:59:21.084Z,99682.36
2022-09-01T23:01:51.955Z,99682.78
2022-09-01T23:04:20.007Z,99678.18
2022-09-01T23:06:53.183Z,99680.39
2022-09-01T23:09:21.686Z,99679.92
2022-09-01T23:11:50.611Z,99681.27
2022-09-01T23:14:18.727Z,99676.08
2022-09-01T23:16:47.523Z,99678.63
2022-09-01T23:19:21.938Z,99676.95
2022-09-01T23:21:52.313Z,99677.55
2022-09-01T23:24:21.537Z,99675.80
2022-09-01T23:26:51.237Z,99680.46
2022-09-01T23:29:20.249Z,99679.59
2022-09-01T23:31:48.603Z,99675.66
2022-09-01T23:34:16.728Z,99678.40
2022-09-01T23:36:45.167Z,99677.23
2022-09-01T23:39:13.056Z,99673.63
2022-09-01T23:41:41.625Z,99677.77
2022-09-01T23:44:13.018Z,99674.38
2022-09-01T23:46:44.377Z,99676.23
2022-09-01T23:49:15.162Z,99669.11
2022-09-01T23:51:44.325Z,99669.42
2022-09-01T23:54:15.459Z,99668.56
2022-09-01T23:56:44.597Z,99667.10
2022-09-01T23:59:13.825Z,99666.88
